sensor_id;sensor_type;location;lat;lon;timestamp;temperature;humidity
67572;SHT31;54397;47.506;19.158;2022-11-15T00:02:44;7.34;81.71
67572;SHT31;54397;47.506;19.158;2022-11-15T00:06:05;7.19;82.36
67572;SHT31;54397;47.506;19.158;2022-11-15T00:09:27;7.17;82.82
67572;SHT31;54397;47.506;19.158;2022-11-15T00:12:51;7.16;82.80
67572;SHT31;54397;47.506;19.158;2022-11-15T00:16:13;7.15;83.10
67572;SHT31;54397;47.506;19.158;2022-11-15T00:19:34;7.17;83.08
67572;SHT31;54397;47.506;19.158;2022-11-15T00:22:56;7.27;82.97
67572;SHT31;54397;47.506;19.158;2022-11-15T00:26:17;7.24;83.18
67572;SHT31;54397;47.506;19.158;2022-11-15T00:29:39;7.23;83.14
67572;SHT31;54397;47.506;19.158;2022-11-15T00:33:05;7.27;83.12
67572;SHT31;54397;47.506;19.158;2022-11-15T00:36:26;7.34;82.47
67572;SHT31;54397;47.506;19.158;2022-11-15T00:39:50;7.33;82.83
67572;SHT31;54397;47.506;19.158;2022-11-15T00:43:12;7.26;82.99
67572;SHT31;54397;47.506;19.158;2022-11-15T00:46:36;7.27;82.79
67572;SHT31;54397;47.506;19.158;2022-11-15T00:50:00;7.37;82.23
67572;SHT31;54397;47.506;19.158;2022-11-15T00:53:22;7.40;81.92
67572;SHT31;54397;47.506;19.158;2022-11-15T00:56:46;7.34;82.47
67572;SHT31;54397;47.506;19.158;2022-11-15T01:00:08;7.30;82.74
67572;SHT31;54397;47.506;19.158;2022-11-15T01:03:33;7.36;83.17
67572;SHT31;54397;47.506;19.158;2022-11-15T01:06:58;7.37;82.55
67572;SHT31;54397;47.506;19.158;2022-11-15T01:10:22;7.36;83.07
67572;SHT31;54397;47.506;19.158;2022-11-15T01:13:44;7.28;83.46
67572;SHT31;54397;47.506;19.158;2022-11-15T01:17:06;7.36;83.16
67572;SHT31;54397;47.506;19.158;2022-11-15T01:20:30;7.40;83.16
67572;SHT31;54397;47.506;19.158;2022-11-15T01:23:56;7.36;82.91
67572;SHT31;54397;47.506;19.158;2022-11-15T01:27:20;7.51;83.04
67572;SHT31;54397;47.506;19.158;2022-11-15T01:30:43;7.44;83.05
67572;SHT31;54397;47.506;19.158;2022-11-15T01:34:05;7.38;83.39
67572;SHT31;54397;47.506;19.158;2022-11-15T01:37:29;7.47;83.32
67572;SHT31;54397;47.506;19.158;2022-11-15T01:40:53;7.51;83.10
67572;SHT31;54397;47.506;19.158;2022-11-15T01:47:58;7.50;83.16
67572;SHT31;54397;47.506;19.158;2022-11-15T01:51:21;7.58;82.65
67572;SHT31;54397;47.506;19.158;2022-11-15T01:54:48;7.53;82.40
67572;SHT31;54397;47.506;19.158;2022-11-15T01:58:10;7.54;82.45
67572;SHT31;54397;47.506;19.158;2022-11-15T02:01:33;7.50;82.87
67572;SHT31;54397;47.506;19.158;2022-11-15T02:04:57;7.57;82.43
67572;SHT31;54397;47.506;19.158;2022-11-15T02:08:19;7.53;82.73
67572;SHT31;54397;47.506;19.158;2022-11-15T02:11:46;7.54;82.44
67572;SHT31;54397;47.506;19.158;2022-11-15T02:15:09;7.58;82.17
67572;SHT31;54397;47.506;19.158;2022-11-15T02:18:39;7.57;82.33
67572;SHT31;54397;47.506;19.158;2022-11-15T02:22:27;7.46;81.59
67572;SHT31;54397;47.506;19.158;2022-11-15T02:33:59;7.82;81.26
67572;SHT31;54397;47.506;19.158;2022-11-15T02:37:34;7.68;81.84
67572;SHT31;54397;47.506;19.158;2022-11-15T02:41:06;7.61;82.04
67572;SHT31;54397;47.506;19.158;2022-11-15T02:44:39;7.48;82.80
67572;SHT31;54397;47.506;19.158;2022-11-15T02:48:07;7.54;82.40
67572;SHT31;54397;47.506;19.158;2022-11-15T02:51:32;7.54;82.57
67572;SHT31;54397;47.506;19.158;2022-11-15T02:54:54;7.51;82.44
67572;SHT31;54397;47.506;19.158;2022-11-15T03:02:42;7.55;82.24
67572;SHT31;54397;47.506;19.158;2022-11-15T03:10:06;7.55;82.26
67572;SHT31;54397;47.506;19.158;2022-11-15T03:17:35;7.77;82.02
67572;SHT31;54397;47.506;19.158;2022-11-15T03:21:05;7.64;82.74
67572;SHT31;54397;47.506;19.158;2022-11-15T03:24:30;7.64;82.21
67572;SHT31;54397;47.506;19.158;2022-11-15T03:27:57;7.65;82.41
67572;SHT31;54397;47.506;19.158;2022-11-15T03:31:21;7.60;82.63
67572;SHT31;54397;47.506;19.158;2022-11-15T03:35:18;7.65;82.18
67572;SHT31;54397;47.506;19.158;2022-11-15T03:38:44;7.79;81.73
67572;SHT31;54397;47.506;19.158;2022-11-15T03:42:17;7.72;82.39
67572;SHT31;54397;47.506;19.158;2022-11-15T03:45:51;7.74;82.23
67572;SHT31;54397;47.506;19.158;2022-11-15T03:49:27;7.67;82.21
67572;SHT31;54397;47.506;19.158;2022-11-15T03:52:50;7.64;82.55
67572;SHT31;54397;47.506;19.158;2022-11-15T03:56:15;7.65;81.51
67572;SHT31;54397;47.506;19.158;2022-11-15T03:59:39;7.63;82.85
67572;SHT31;54397;47.506;19.158;2022-11-15T04:03:00;7.55;82.74
67572;SHT31;54397;47.506;19.158;2022-11-15T04:06:22;7.57;82.87
67572;SHT31;54397;47.506;19.158;2022-11-15T04:09:43;7.61;82.76
67572;SHT31;54397;47.506;19.158;2022-11-15T04:13:23;7.67;82.82
67572;SHT31;54397;47.506;19.158;2022-11-15T04:16:45;7.64;82.39
67572;SHT31;54397;47.506;19.158;2022-11-15T04:20:27;7.86;82.23
67572;SHT31;54397;47.506;19.158;2022-11-15T04:24:07;7.81;82.15
67572;SHT31;54397;47.506;19.158;2022-11-15T04:27:31;7.91;82.17
67572;SHT31;54397;47.506;19.158;2022-11-15T04:30:55;7.54;83.01
67572;SHT31;54397;47.506;19.158;2022-11-15T04:34:22;7.28;83.37
67572;SHT31;54397;47.506;19.158;2022-11-15T04:37:43;7.06;85.19
67572;SHT31;54397;47.506;19.158;2022-11-15T04:41:12;7.27;85.34
67572;SHT31;54397;47.506;19.158;2022-11-15T04:44:33;7.38;84.48
67572;SHT31;54397;47.506;19.158;2022-11-15T04:47:55;7.51;84.24
67572;SHT31;54397;47.506;19.158;2022-11-15T04:51:17;7.57;83.89
67572;SHT31;54397;47.506;19.158;2022-11-15T04:54:39;7.53;83.65
67572;SHT31;54397;47.506;19.158;2022-11-15T04:58:03;7.68;83.43
67572;SHT31;54397;47.506;19.158;2022-11-15T05:01:24;7.67;83.38
67572;SHT31;54397;47.506;19.158;2022-11-15T05:04:46;7.88;82.67
67572;SHT31;54397;47.506;19.158;2022-11-15T05:08:12;7.82;82.83
67572;SHT31;54397;47.506;19.158;2022-11-15T05:11:34;7.85;83.27
67572;SHT31;54397;47.506;19.158;2022-11-15T05:14:55;7.86;82.91
67572;SHT31;54397;47.506;19.158;2022-11-15T05:18:17;7.81;83.19
67572;SHT31;54397;47.506;19.158;2022-11-15T05:21:46;7.84;83.39
67572;SHT31;54397;47.506;19.158;2022-11-15T05:25:11;7.88;82.96
67572;SHT31;54397;47.506;19.158;2022-11-15T05:28:35;7.85;83.41
67572;SHT31;54397;47.506;19.158;2022-11-15T05:31:57;7.82;83.06
67572;SHT31;54397;47.506;19.158;2022-11-15T05:35:30;7.72;83.43
67572;SHT31;54397;47.506;19.158;2022-11-15T05:38:55;7.84;83.31
67572;SHT31;54397;47.506;19.158;2022-11-15T05:42:16;7.77;83.10
67572;SHT31;54397;47.506;19.158;2022-11-15T05:45:38;7.79;83.32
67572;SHT31;54397;47.506;19.158;2022-11-15T05:49:00;7.89;83.21
67572;SHT31;54397;47.506;19.158;2022-11-15T05:52:28;7.88;83.56
67572;SHT31;54397;47.506;19.158;2022-11-15T05:55:51;7.88;83.56
67572;SHT31;54397;47.506;19.158;2022-11-15T05:59:13;7.89;83.35
67572;SHT31;54397;47.506;19.158;2022-11-15T06:02:37;7.88;83.50
67572;SHT31;54397;47.506;19.158;2022-11-15T06:05:59;7.93;83.16
67572;SHT31;54397;47.506;19.158;2022-11-15T06:09:23;8.02;82.78
67572;SHT31;54397;47.506;19.158;2022-11-15T06:12:44;7.98;83.24
67572;SHT31;54397;47.506;19.158;2022-11-15T06:16:06;7.96;82.95
67572;SHT31;54397;47.506;19.158;2022-11-15T06:19:28;8.01;82.79
67572;SHT31;54397;47.506;19.158;2022-11-15T06:23:01;7.96;83.51
67572;SHT31;54397;47.506;19.158;2022-11-15T06:26:23;8.02;83.52
67572;SHT31;54397;47.506;19.158;2022-11-15T06:29:48;8.05;82.97
67572;SHT31;54397;47.506;19.158;2022-11-15T06:33:10;8.09;83.58
67572;SHT31;54397;47.506;19.158;2022-11-15T06:36:36;8.13;82.99
67572;SHT31;54397;47.506;19.158;2022-11-15T06:39:57;8.06;83.64
67572;SHT31;54397;47.506;19.158;2022-11-15T06:43:19;8.03;83.58
67572;SHT31;54397;47.506;19.158;2022-11-15T06:46:43;8.12;83.99
67572;SHT31;54397;47.506;19.158;2022-11-15T06:50:05;8.17;84.00
67572;SHT31;54397;47.506;19.158;2022-11-15T06:53:30;8.34;83.00
67572;SHT31;54397;47.506;19.158;2022-11-15T06:56:52;8.16;83.00
67572;SHT31;54397;47.506;19.158;2022-11-15T07:00:18;8.13;83.90
67572;SHT31;54397;47.506;19.158;2022-11-15T07:03:42;8.28;88.55
67572;SHT31;54397;47.506;19.158;2022-11-15T07:07:07;9.20;94.67
67572;SHT31;54397;47.506;19.158;2022-11-15T07:10:31;9.77;91.19
67572;SHT31;54397;47.506;19.158;2022-11-15T07:13:55;10.41;81.35
67572;SHT31;54397;47.506;19.158;2022-11-15T07:17:16;11.48;78.20
67572;SHT31;54397;47.506;19.158;2022-11-15T07:20:40;10.94;74.09
67572;SHT31;54397;47.506;19.158;2022-11-15T07:24:02;10.28;76.30
67572;SHT31;54397;47.506;19.158;2022-11-15T07:27:25;9.81;78.33
67572;SHT31;54397;47.506;19.158;2022-11-15T07:30:47;9.37;79.81
67572;SHT31;54397;47.506;19.158;2022-11-15T07:34:11;9.19;80.85
67572;SHT31;54397;47.506;19.158;2022-11-15T07:37:37;9.15;81.07
67572;SHT31;54397;47.506;19.158;2022-11-15T07:41:00;9.05;81.56
67572;SHT31;54397;47.506;19.158;2022-11-15T07:44:29;9.06;81.46
67572;SHT31;54397;47.506;19.158;2022-11-15T07:47:51;9.04;81.85
67572;SHT31;54397;47.506;19.158;2022-11-15T07:51:14;9.54;92.93
67572;SHT31;54397;47.506;19.158;2022-11-15T07:54:39;10.22;90.66
67572;SHT31;54397;47.506;19.158;2022-11-15T07:58:05;10.84;87.35
67572;SHT31;54397;47.506;19.158;2022-11-15T08:01:29;11.29;85.08
67572;SHT31;54397;47.506;19.158;2022-11-15T08:04:54;11.54;85.37
67572;SHT31;54397;47.506;19.158;2022-11-15T08:08:16;11.66;83.65
67572;SHT31;54397;47.506;19.158;2022-11-15T08:11:38;11.83;85.07
67572;SHT31;54397;47.506;19.158;2022-11-15T08:15:02;11.86;82.57
67572;SHT31;54397;47.506;19.158;2022-11-15T08:18:27;11.61;77.80
67572;SHT31;54397;47.506;19.158;2022-11-15T08:21:48;11.42;80.31
67572;SHT31;54397;47.506;19.158;2022-11-15T08:25:12;11.29;80.26
67572;SHT31;54397;47.506;19.158;2022-11-15T08:28:34;11.17;81.23
67572;SHT31;54397;47.506;19.158;2022-11-15T08:31:58;11.03;82.55
67572;SHT31;54397;47.506;19.158;2022-11-15T08:35:22;11.01;81.82
67572;SHT31;54397;47.506;19.158;2022-11-15T08:38:49;10.91;77.28
67572;SHT31;54397;47.506;19.158;2022-11-15T08:42:11;10.60;77.84
67572;SHT31;54397;47.506;19.158;2022-11-15T08:45:39;10.12;79.14
67572;SHT31;54397;47.506;19.158;2022-11-15T08:49:03;9.90;80.42
67572;SHT31;54397;47.506;19.158;2022-11-15T08:52:28;9.75;80.85
67572;SHT31;54397;47.506;19.158;2022-11-15T08:55:52;9.67;81.90
67572;SHT31;54397;47.506;19.158;2022-11-15T08:59:13;9.61;82.21
67572;SHT31;54397;47.506;19.158;2022-11-15T09:02:37;9.64;82.37
67572;SHT31;54397;47.506;19.158;2022-11-15T09:06:00;9.61;82.28
67572;SHT31;54397;47.506;19.158;2022-11-15T09:09:24;9.63;82.95
67572;SHT31;54397;47.506;19.158;2022-11-15T09:12:46;9.95;88.27
67572;SHT31;54397;47.506;19.158;2022-11-15T09:16:10;10.36;87.81
67572;SHT31;54397;47.506;19.158;2022-11-15T09:19:33;10.63;86.79
67572;SHT31;54397;47.506;19.158;2022-11-15T09:22:54;10.91;85.38
67572;SHT31;54397;47.506;19.158;2022-11-15T09:26:18;11.12;84.35
67572;SHT31;54397;47.506;19.158;2022-11-15T09:29:40;11.29;84.65
67572;SHT31;54397;47.506;19.158;2022-11-15T09:33:09;11.36;84.10
67572;SHT31;54397;47.506;19.158;2022-11-15T09:36:33;11.48;83.76
67572;SHT31;54397;47.506;19.158;2022-11-15T09:39:57;11.34;78.74
67572;SHT31;54397;47.506;19.158;2022-11-15T09:51:14;10.45;80.47
67572;SHT31;54397;47.506;19.158;2022-11-15T09:54:47;10.25;81.16
67572;SHT31;54397;47.506;19.158;2022-11-15T09:58:26;10.01;81.76
67572;SHT31;54397;47.506;19.158;2022-11-15T10:05:20;9.88;82.56
67572;SHT31;54397;47.506;19.158;2022-11-15T10:09:01;9.94;87.15
67572;SHT31;54397;47.506;19.158;2022-11-15T10:12:27;9.90;84.23
67572;SHT31;54397;47.506;19.158;2022-11-15T10:15:49;10.46;87.25
67572;SHT31;54397;47.506;19.158;2022-11-15T10:23:05;11.11;83.97
67572;SHT31;54397;47.506;19.158;2022-11-15T10:26:32;11.28;83.26
67572;SHT31;54397;47.506;19.158;2022-11-15T10:29:54;11.36;82.26
67572;SHT31;54397;47.506;19.158;2022-11-15T10:33:36;11.49;82.65
67572;SHT31;54397;47.506;19.158;2022-11-15T10:36:59;11.38;78.10
67572;SHT31;54397;47.506;19.158;2022-11-15T10:40:24;11.03;76.83
67572;SHT31;54397;47.506;19.158;2022-11-15T10:47:26;10.36;79.80
67572;SHT31;54397;47.506;19.158;2022-11-15T10:50:48;10.22;81.59
67572;SHT31;54397;47.506;19.158;2022-11-15T10:54:16;9.97;81.93
67572;SHT31;54397;47.506;19.158;2022-11-15T10:57:55;9.87;83.52
67572;SHT31;54397;47.506;19.158;2022-11-15T11:04:51;9.60;83.80
67572;SHT31;54397;47.506;19.158;2022-11-15T11:11:46;9.99;88.04
67572;SHT31;54397;47.506;19.158;2022-11-15T11:15:11;10.43;88.81
67572;SHT31;54397;47.506;19.158;2022-11-15T11:22:34;11.10;84.07
67572;SHT31;54397;47.506;19.158;2022-11-15T11:26:29;11.39;84.89
67572;SHT31;54397;47.506;19.158;2022-11-15T11:30:16;11.52;80.06
67572;SHT31;54397;47.506;19.158;2022-11-15T11:37:51;11.65;78.94
67572;SHT31;54397;47.506;19.158;2022-11-15T11:52:13;10.49;79.90
67572;SHT31;54397;47.506;19.158;2022-11-15T12:02:43;9.85;81.57
67572;SHT31;54397;47.506;19.158;2022-11-15T12:06:22;9.84;82.62
67572;SHT31;54397;47.506;19.158;2022-11-15T12:09:51;10.09;86.10
67572;SHT31;54397;47.506;19.158;2022-11-15T12:13:23;10.26;86.77
67572;SHT31;54397;47.506;19.158;2022-11-15T12:16:49;10.59;85.38
67572;SHT31;54397;47.506;19.158;2022-11-15T12:20:18;10.71;84.55
67572;SHT31;54397;47.506;19.158;2022-11-15T12:23:48;10.60;79.97
67572;SHT31;54397;47.506;19.158;2022-11-15T12:34:43;9.73;80.97
67572;SHT31;54397;47.506;19.158;2022-11-15T12:38:11;9.54;82.59
67572;SHT31;54397;47.506;19.158;2022-11-15T12:41:39;9.57;82.69
67572;SHT31;54397;47.506;19.158;2022-11-15T12:45:22;9.50;82.66
67572;SHT31;54397;47.506;19.158;2022-11-15T12:52:06;9.67;82.70
67572;SHT31;54397;47.506;19.158;2022-11-15T12:55:31;9.57;82.63
67572;SHT31;54397;47.506;19.158;2022-11-15T12:58:57;9.56;83.31
67572;SHT31;54397;47.506;19.158;2022-11-15T13:02:24;9.53;83.27
67572;SHT31;54397;47.506;19.158;2022-11-15T13:05:55;9.57;83.18
67572;SHT31;54397;47.506;19.158;2022-11-15T13:13:02;9.39;83.68
67572;SHT31;54397;47.506;19.158;2022-11-15T13:16:29;9.32;83.70
67572;SHT31;54397;47.506;19.158;2022-11-15T13:23:35;9.43;84.54
67572;SHT31;54397;47.506;19.158;2022-11-15T13:27:15;9.56;84.48
67572;SHT31;54397;47.506;19.158;2022-11-15T13:30:50;9.58;84.14
67572;SHT31;54397;47.506;19.158;2022-11-15T13:34:28;9.61;83.01
67572;SHT31;54397;47.506;19.158;2022-11-15T13:38:19;9.63;83.39
67572;SHT31;54397;47.506;19.158;2022-11-15T13:41:48;9.42;82.27
67572;SHT31;54397;47.506;19.158;2022-11-15T13:45:18;9.42;84.10
67572;SHT31;54397;47.506;19.158;2022-11-15T13:48:41;9.37;84.69
67572;SHT31;54397;47.506;19.158;2022-11-15T13:52:06;9.48;84.70
67572;SHT31;54397;47.506;19.158;2022-11-15T13:55:29;9.56;84.48
67572;SHT31;54397;47.506;19.158;2022-11-15T13:58:56;9.51;84.00
67572;SHT31;54397;47.506;19.158;2022-11-15T14:02:26;9.42;84.59
67572;SHT31;54397;47.506;19.158;2022-11-15T14:06:14;9.39;84.78
67572;SHT31;54397;47.506;19.158;2022-11-15T14:09:40;9.37;85.06
67572;SHT31;54397;47.506;19.158;2022-11-15T14:13:02;9.44;84.06
67572;SHT31;54397;47.506;19.158;2022-11-15T14:16:35;9.43;84.90
67572;SHT31;54397;47.506;19.158;2022-11-15T14:19:57;9.27;83.53
67572;SHT31;54397;47.506;19.158;2022-11-15T14:23:27;9.20;84.23
67572;SHT31;54397;47.506;19.158;2022-11-15T14:26:49;9.22;85.15
67572;SHT31;54397;47.506;19.158;2022-11-15T14:30:17;9.06;85.06
67572;SHT31;54397;47.506;19.158;2022-11-15T14:33:39;9.19;85.62
67572;SHT31;54397;47.506;19.158;2022-11-15T14:37:00;9.14;85.06
67572;SHT31;54397;47.506;19.158;2022-11-15T14:40:24;9.19;85.39
67572;SHT31;54397;47.506;19.158;2022-11-15T14:43:51;9.22;84.48
67572;SHT31;54397;47.506;19.158;2022-11-15T14:47:13;9.20;85.30
67572;SHT31;54397;47.506;19.158;2022-11-15T14:50:34;9.23;86.01
67572;SHT31;54397;47.506;19.158;2022-11-15T14:54:02;9.25;86.19
67572;SHT31;54397;47.506;19.158;2022-11-15T14:57:24;9.25;86.43
67572;SHT31;54397;47.506;19.158;2022-11-15T15:00:46;9.22;85.37
67572;SHT31;54397;47.506;19.158;2022-11-15T15:04:10;9.09;85.34
67572;SHT31;54397;47.506;19.158;2022-11-15T15:07:32;9.14;86.32
67572;SHT31;54397;47.506;19.158;2022-11-15T15:10:53;9.19;86.27
67572;SHT31;54397;47.506;19.158;2022-11-15T15:14:15;9.27;85.65
67572;SHT31;54397;47.506;19.158;2022-11-15T15:17:36;9.47;85.51
67572;SHT31;54397;47.506;19.158;2022-11-15T15:20:59;9.39;84.61
67572;SHT31;54397;47.506;19.158;2022-11-15T15:24:24;9.39;84.79
67572;SHT31;54397;47.506;19.158;2022-11-15T15:27:45;9.32;84.65
67572;SHT31;54397;47.506;19.158;2022-11-15T15:31:10;9.26;85.29
67572;SHT31;54397;47.506;19.158;2022-11-15T15:34:35;9.37;84.59
67572;SHT31;54397;47.506;19.158;2022-11-15T15:37:57;9.26;83.88
67572;SHT31;54397;47.506;19.158;2022-11-15T15:41:19;9.23;85.59
67572;SHT31;54397;47.506;19.158;2022-11-15T15:44:43;9.22;84.83
67572;SHT31;54397;47.506;19.158;2022-11-15T15:48:04;9.29;84.89
67572;SHT31;54397;47.506;19.158;2022-11-15T15:51:29;9.36;85.45
67572;SHT31;54397;47.506;19.158;2022-11-15T15:54:50;9.60;92.23
67572;SHT31;54397;47.506;19.158;2022-11-15T15:58:14;10.42;95.51
67572;SHT31;54397;47.506;19.158;2022-11-15T16:01:35;10.87;92.84
67572;SHT31;54397;47.506;19.158;2022-11-15T16:04:57;11.35;89.43
67572;SHT31;54397;47.506;19.158;2022-11-15T16:08:23;11.65;87.82
67572;SHT31;54397;47.506;19.158;2022-11-15T16:11:45;11.84;86.84
67572;SHT31;54397;47.506;19.158;2022-11-15T16:15:07;11.91;85.99
67572;SHT31;54397;47.506;19.158;2022-11-15T16:18:29;11.49;76.55
67572;SHT31;54397;47.506;19.158;2022-11-15T16:21:51;10.97;78.55
67572;SHT31;54397;47.506;19.158;2022-11-15T16:25:16;10.41;79.28
67572;SHT31;54397;47.506;19.158;2022-11-15T16:28:38;10.22;81.52
67572;SHT31;54397;47.506;19.158;2022-11-15T16:32:05;10.02;81.50
67572;SHT31;54397;47.506;19.158;2022-11-15T16:35:26;9.88;82.47
67572;SHT31;54397;47.506;19.158;2022-11-15T16:38:48;9.84;82.88
67572;SHT31;54397;47.506;19.158;2022-11-15T16:42:12;9.71;83.24
67572;SHT31;54397;47.506;19.158;2022-11-15T16:45:34;9.60;83.94
67572;SHT31;54397;47.506;19.158;2022-11-15T16:48:59;9.53;84.02
67572;SHT31;54397;47.506;19.158;2022-11-15T16:52:20;9.40;84.58
67572;SHT31;54397;47.506;19.158;2022-11-15T16:55:44;9.27;85.37
67572;SHT31;54397;47.506;19.158;2022-11-15T16:59:14;9.33;84.97
67572;SHT31;54397;47.506;19.158;2022-11-15T17:02:38;9.44;84.77
67572;SHT31;54397;47.506;19.158;2022-11-15T17:06:02;9.25;85.06
67572;SHT31;54397;47.506;19.158;2022-11-15T17:09:26;9.32;85.82
67572;SHT31;54397;47.506;19.158;2022-11-15T17:12:48;9.32;85.28
67572;SHT31;54397;47.506;19.158;2022-11-15T17:16:14;9.35;85.03
67572;SHT31;54397;47.506;19.158;2022-11-15T17:19:36;9.36;85.76
67572;SHT31;54397;47.506;19.158;2022-11-15T17:22:58;9.37;85.92
67572;SHT31;54397;47.506;19.158;2022-11-15T17:26:22;9.40;85.85
67572;SHT31;54397;47.506;19.158;2022-11-15T17:29:52;9.37;85.26
67572;SHT31;54397;47.506;19.158;2022-11-15T17:33:18;9.32;85.67
67572;SHT31;54397;47.506;19.158;2022-11-15T17:36:39;9.36;85.96
67572;SHT31;54397;47.506;19.158;2022-11-15T17:40:01;9.42;86.16
67572;SHT31;54397;47.506;19.158;2022-11-15T17:43:23;9.42;86.27
67572;SHT31;54397;47.506;19.158;2022-11-15T17:46:50;9.40;86.16
67572;SHT31;54397;47.506;19.158;2022-11-15T17:50:11;9.47;86.30
67572;SHT31;54397;47.506;19.158;2022-11-15T17:53:38;9.42;86.30
67572;SHT31;54397;47.506;19.158;2022-11-15T17:57:00;9.39;86.24
67572;SHT31;54397;47.506;19.158;2022-11-15T18:00:23;9.37;86.29
67572;SHT31;54397;47.506;19.158;2022-11-15T18:03:45;9.32;85.62
67572;SHT31;54397;47.506;19.158;2022-11-15T18:07:07;9.32;86.01
67572;SHT31;54397;47.506;19.158;2022-11-15T18:10:34;9.30;85.84
67572;SHT31;54397;47.506;19.158;2022-11-15T18:13:59;9.33;86.92
67572;SHT31;54397;47.506;19.158;2022-11-15T18:17:24;9.30;86.16
67572;SHT31;54397;47.506;19.158;2022-11-15T18:20:45;9.27;86.68
67572;SHT31;54397;47.506;19.158;2022-11-15T18:24:07;9.33;86.69
67572;SHT31;54397;47.506;19.158;2022-11-15T18:27:29;9.37;87.00
67572;SHT31;54397;47.506;19.158;2022-11-15T18:30:50;9.36;86.77
67572;SHT31;54397;47.506;19.158;2022-11-15T18:34:15;9.33;85.87
67572;SHT31;54397;47.506;19.158;2022-11-15T18:37:36;9.30;86.41
67572;SHT31;54397;47.506;19.158;2022-11-15T18:41:05;9.33;87.21
67572;SHT31;54397;47.506;19.158;2022-11-15T18:44:28;9.11;86.78
67572;SHT31;54397;47.506;19.158;2022-11-15T18:47:50;9.14;87.41
67572;SHT31;54397;47.506;19.158;2022-11-15T18:51:15;9.19;87.40
67572;SHT31;54397;47.506;19.158;2022-11-15T18:54:37;9.05;87.08
67572;SHT31;54397;47.506;19.158;2022-11-15T18:58:01;8.99;87.16
67572;SHT31;54397;47.506;19.158;2022-11-15T19:01:25;9.12;87.67
67572;SHT31;54397;47.506;19.158;2022-11-15T19:04:47;9.15;87.62
67572;SHT31;54397;47.506;19.158;2022-11-15T19:08:11;9.47;94.11
67572;SHT31;54397;47.506;19.158;2022-11-15T19:11:37;10.36;96.98
67572;SHT31;54397;47.506;19.158;2022-11-15T19:15:01;10.80;95.26
67572;SHT31;54397;47.506;19.158;2022-11-15T19:18:31;11.12;91.92
67572;SHT31;54397;47.506;19.158;2022-11-15T19:21:53;11.45;89.34
67572;SHT31;54397;47.506;19.158;2022-11-15T19:25:15;11.56;85.96
67572;SHT31;54397;47.506;19.158;2022-11-15T19:28:39;11.58;85.85
67572;SHT31;54397;47.506;19.158;2022-11-15T19:32:00;11.42;85.43
67572;SHT31;54397;47.506;19.158;2022-11-15T19:35:26;11.10;81.20
67572;SHT31;54397;47.506;19.158;2022-11-15T19:38:49;10.66;81.95
67572;SHT31;54397;47.506;19.158;2022-11-15T19:42:13;10.26;83.39
67572;SHT31;54397;47.506;19.158;2022-11-15T19:45:38;9.98;84.55
67572;SHT31;54397;47.506;19.158;2022-11-15T19:48:59;9.94;84.60
67572;SHT31;54397;47.506;19.158;2022-11-15T19:52:24;9.83;85.20
67572;SHT31;54397;47.506;19.158;2022-11-15T19:55:56;9.67;84.68
67572;SHT31;54397;47.506;19.158;2022-11-15T19:59:20;9.57;84.98
67572;SHT31;54397;47.506;19.158;2022-11-15T20:02:42;9.53;86.41
67572;SHT31;54397;47.506;19.158;2022-11-15T20:06:16;9.44;86.71
67572;SHT31;54397;47.506;19.158;2022-11-15T20:09:37;9.40;87.40
67572;SHT31;54397;47.506;19.158;2022-11-15T20:13:01;9.39;87.61
67572;SHT31;54397;47.506;19.158;2022-11-15T20:16:28;9.37;87.62
67572;SHT31;54397;47.506;19.158;2022-11-15T20:19:49;9.69;94.56
67572;SHT31;54397;47.506;19.158;2022-11-15T20:23:13;10.55;96.22
67572;SHT31;54397;47.506;19.158;2022-11-15T20:26:35;11.07;94.12
67572;SHT31;54397;47.506;19.158;2022-11-15T20:29:58;11.34;89.91
67572;SHT31;54397;47.506;19.158;2022-11-15T20:33:21;11.34;86.38
67572;SHT31;54397;47.506;19.158;2022-11-15T20:36:43;11.31;85.61
67572;SHT31;54397;47.506;19.158;2022-11-15T20:40:05;11.19;83.73
67572;SHT31;54397;47.506;19.158;2022-11-15T20:43:28;10.87;81.73
67572;SHT31;54397;47.506;19.158;2022-11-15T20:46:50;10.46;83.23
67572;SHT31;54397;47.506;19.158;2022-11-15T20:50:14;10.21;84.18
67572;SHT31;54397;47.506;19.158;2022-11-15T20:53:56;9.87;84.80
67572;SHT31;54397;47.506;19.158;2022-11-15T20:57:18;9.80;85.78
67572;SHT31;54397;47.506;19.158;2022-11-15T21:00:42;9.74;85.72
67572;SHT31;54397;47.506;19.158;2022-11-15T21:04:07;9.67;85.44
67572;SHT31;54397;47.506;19.158;2022-11-15T21:07:29;9.83;90.79
67572;SHT31;54397;47.506;19.158;2022-11-15T21:10:53;10.15;89.92
67572;SHT31;54397;47.506;19.158;2022-11-15T21:14:33;10.42;91.24
67572;SHT31;54397;47.506;19.158;2022-11-15T21:17:55;10.66;88.57
67572;SHT31;54397;47.506;19.158;2022-11-15T21:21:17;10.87;88.18
67572;SHT31;54397;47.506;19.158;2022-11-15T21:24:41;10.96;87.55
67572;SHT31;54397;47.506;19.158;2022-11-15T21:28:05;10.94;86.74
67572;SHT31;54397;47.506;19.158;2022-11-15T21:31:29;10.87;82.05
67572;SHT31;54397;47.506;19.158;2022-11-15T21:34:52;10.46;82.53
67572;SHT31;54397;47.506;19.158;2022-11-15T21:38:14;10.08;83.41
67572;SHT31;54397;47.506;19.158;2022-11-15T21:41:36;9.91;84.79
67572;SHT31;54397;47.506;19.158;2022-11-15T21:44:58;9.84;85.06
67572;SHT31;54397;47.506;19.158;2022-11-15T21:48:19;9.67;85.57
67572;SHT31;54397;47.506;19.158;2022-11-15T21:51:41;9.66;85.91
67572;SHT31;54397;47.506;19.158;2022-11-15T21:55:03;9.61;86.55
67572;SHT31;54397;47.506;19.158;2022-11-15T21:58:28;9.54;86.89
67572;SHT31;54397;47.506;19.158;2022-11-15T22:01:52;9.50;87.00
67572;SHT31;54397;47.506;19.158;2022-11-15T22:05:35;9.46;87.40
67572;SHT31;54397;47.506;19.158;2022-11-15T22:08:56;9.42;87.55
67572;SHT31;54397;47.506;19.158;2022-11-15T22:12:20;9.43;87.73
67572;SHT31;54397;47.506;19.158;2022-11-15T22:15:49;9.43;87.57
67572;SHT31;54397;47.506;19.158;2022-11-15T22:19:11;9.43;86.98
67572;SHT31;54397;47.506;19.158;2022-11-15T22:22:33;9.47;87.45
67572;SHT31;54397;47.506;19.158;2022-11-15T22:25:57;9.50;87.32
67572;SHT31;54397;47.506;19.158;2022-11-15T22:29:21;9.47;87.46
67572;SHT31;54397;47.506;19.158;2022-11-15T22:32:43;9.46;87.33
67572;SHT31;54397;47.506;19.158;2022-11-15T22:36:05;9.43;87.85
67572;SHT31;54397;47.506;19.158;2022-11-15T22:39:27;9.42;88.09
67572;SHT31;54397;47.506;19.158;2022-11-15T22:42:51;9.39;88.14
67572;SHT31;54397;47.506;19.158;2022-11-15T22:46:12;9.33;87.82
67572;SHT31;54397;47.506;19.158;2022-11-15T22:49:37;9.36;88.36
67572;SHT31;54397;47.506;19.158;2022-11-15T22:53:02;9.33;87.95
67572;SHT31;54397;47.506;19.158;2022-11-15T22:56:24;9.33;88.12
67572;SHT31;54397;47.506;19.158;2022-11-15T22:59:50;9.37;88.33
67572;SHT31;54397;47.506;19.158;2022-11-15T23:03:11;9.40;88.19
67572;SHT31;54397;47.506;19.158;2022-11-15T23:06:33;9.43;88.13